createdAt,value
2022-09-10T00:01:07.841Z,1.58
2022-09-10T00:03:34.982Z,2.35
2022-09-10T00:06:04.785Z,1.80
2022-09-10T00:08:35.195Z,2.20
2022-09-10T00:11:07.317Z,2.00
2022-09-10T00:13:34.625Z,1.75
2022-09-10T00:16:03.912Z,1.92
2022-09-10T00:18:31.867Z,1.75
2022-09-10T00:20:59.957Z,1.67
2022-09-10T00:23:28.253Z,2.80
2022-09-10T00:25:56.482Z,2.15
2022-09-10T00:28:25.506Z,2.00
2022-09-10T00:30:55.384Z,2.15
2022-09-10T00:33:24.704Z,2.30
2022-09-10T00:35:51.660Z,2.25
2022-09-10T00:38:18.484Z,1.63
2022-09-10T00:40:46.290Z,3.15
2022-09-10T00:43:22.012Z,2.03
2022-09-10T00:45:55.278Z,2.30
2022-09-10T00:48:28.645Z,2.10
2022-09-10T00:50:56.942Z,3.40
2022-09-10T00:53:27.499Z,2.13
2022-09-10T00:55:58.692Z,2.25
2022-09-10T00:58:27.688Z,1.73
2022-09-10T01:01:00.005Z,2.08
2022-09-10T01:03:30.040Z,2.00
2022-09-10T01:05:57.354Z,2.15
2022-09-10T01:08:24.423Z,2.75
2022-09-10T01:11:26.468Z,2.30
2022-09-10T01:14:14.445Z,1.90
2022-09-10T01:17:03.405Z,2.58
2022-09-10T01:19:58.511Z,1.73
2022-09-10T01:22:37.498Z,3.00
2022-09-10T01:25:34.768Z,2.38
2022-09-10T01:28:09.807Z,2.25
2022-09-10T01:30:44.022Z,2.80
2022-09-10T01:33:31.935Z,2.67
2022-09-10T01:36:06.805Z,2.55
2022-09-10T01:38:36.868Z,3.35
2022-09-10T01:41:05.194Z,2.95
2022-09-10T01:43:37.881Z,3.63
2022-09-10T01:46:35.809Z,2.83
2022-09-10T01:49:28.478Z,3.45
2022-09-10T01:51:59.834Z,2.28
2022-09-10T01:54:57.078Z,3.15
2022-09-10T01:57:52.950Z,2.97
2022-09-10T02:00:22.170Z,4.07
2022-09-10T02:03:04.091Z,2.97
2022-09-10T02:05:36.258Z,3.45
2022-09-10T02:08:13.035Z,4.20
2022-09-10T02:11:10.285Z,3.90
2022-09-10T02:13:39.426Z,3.25
2022-09-10T02:16:38.940Z,3.45
2022-09-10T02:19:08.432Z,4.18
2022-09-10T02:21:35.990Z,3.95
2022-09-10T02:24:28.357Z,3.80
2022-09-10T02:26:55.113Z,4.30
2022-09-10T02:29:28.146Z,4.60
2022-09-10T02:31:55.130Z,4.90
2022-09-10T02:34:25.591Z,4.68
2022-09-10T02:36:57.639Z,4.88
2022-09-10T02:39:26.530Z,5.22
2022-09-10T02:41:53.609Z,5.43
2022-09-10T02:44:28.180Z,4.78
2022-09-10T02:46:55.510Z,5.72
2022-09-10T02:49:23.334Z,4.82
2022-09-10T02:51:51.488Z,6.07
2022-09-10T02:54:19.919Z,5.07
2022-09-10T02:56:50.361Z,5.13
2022-09-10T02:59:20.332Z,5.57
2022-09-10T03:01:48.227Z,5.25
2022-09-10T03:04:16.391Z,4.95
2022-09-10T03:06:43.424Z,4.97
2022-09-10T03:09:11.088Z,5.45
2022-09-10T03:11:40.587Z,6.43
2022-09-10T03:14:10.016Z,5.90
2022-09-10T03:16:36.829Z,5.18
2022-09-10T03:19:07.797Z,5.30
2022-09-10T03:21:35.154Z,5.55
2022-09-10T03:24:04.667Z,5.30
2022-09-10T03:26:32.123Z,6.18
2022-09-10T03:28:59.750Z,5.95
2022-09-10T03:31:30.889Z,7.50
2022-09-10T03:33:59.639Z,6.10
2022-09-10T03:36:30.213Z,5.72
2022-09-10T03:39:00.277Z,6.78
2022-09-10T03:41:30.833Z,5.85
2022-09-10T03:43:58.884Z,5.95
2022-09-10T03:46:27.000Z,6.15
2022-09-10T03:48:56.453Z,6.32
2022-09-10T03:51:25.665Z,6.03
2022-09-10T03:53:52.417Z,7.22
2022-09-10T03:56:21.375Z,6.85
2022-09-10T03:58:49.198Z,7.78
2022-09-10T04:01:20.006Z,6.28
2022-09-10T04:03:48.751Z,6.75
2022-09-10T04:06:16.422Z,6.38
2022-09-10T04:08:43.537Z,6.65
2022-09-10T04:11:11.910Z,6.90
2022-09-10T04:13:39.338Z,7.32
2022-09-10T04:16:06.333Z,6.88
2022-09-10T04:18:34.171Z,6.60
2022-09-10T04:21:02.447Z,6.38
2022-09-10T04:23:33.125Z,6.80
2022-09-10T04:26:11.878Z,7.28
2022-09-10T04:28:39.086Z,6.55
2022-09-10T04:31:07.027Z,6.38
2022-09-10T04:33:34.395Z,6.95
2022-09-10T04:36:02.784Z,7.20
2022-09-10T04:38:30.379Z,6.88
2022-09-10T04:40:57.986Z,7.70
2022-09-10T04:43:28.669Z,7.15
2022-09-10T04:45:56.104Z,8.48
2022-09-10T04:48:24.798Z,7.90
2022-09-10T04:51:14.693Z,8.15
2022-09-10T04:53:43.330Z,7.30
2022-09-10T04:56:10.440Z,6.85
2022-09-10T04:58:39.265Z,7.10
2022-09-10T05:01:07.399Z,8.80
2022-09-10T05:03:34.724Z,8.20
2022-09-10T05:06:02.445Z,7.90
2022-09-10T05:08:30.039Z,7.45
2022-09-10T05:11:00.396Z,7.82
2022-09-10T05:13:28.821Z,8.35
2022-09-10T05:15:55.628Z,7.72
2022-09-10T05:18:22.586Z,7.60
2022-09-10T05:20:49.613Z,7.63
2022-09-10T05:23:16.338Z,8.50
2022-09-10T05:25:44.392Z,7.97
2022-09-10T05:28:11.284Z,8.13
2022-09-10T05:30:38.129Z,8.48
2022-09-10T05:33:04.939Z,7.32
2022-09-10T05:35:34.630Z,7.45
2022-09-10T05:38:01.464Z,7.72
2022-09-10T05:40:30.574Z,7.78
2022-09-10T05:42:58.028Z,8.32
2022-09-10T05:45:25.695Z,7.15
2022-09-10T05:47:53.119Z,8.15
2022-09-10T05:50:24.221Z,7.55
2022-09-10T05:52:53.516Z,6.40
2022-09-10T05:55:20.883Z,7.28
2022-09-10T05:57:48.989Z,7.32
2022-09-10T06:00:19.137Z,6.25
2022-09-10T06:02:54.397Z,6.03
2022-09-10T06:05:39.092Z,6.78
2022-09-10T06:08:08.699Z,5.45
2022-09-10T06:10:39.290Z,6.43
2022-09-10T06:13:07.042Z,6.75
2022-09-10T06:15:35.728Z,6.40
2022-09-10T06:18:03.184Z,6.15
2022-09-10T06:20:35.701Z,6.75
2022-09-10T06:23:04.449Z,5.93
2022-09-10T06:25:31.226Z,7.10
2022-09-10T06:27:58.272Z,7.20
2022-09-10T06:30:26.410Z,5.90
2022-09-10T06:32:53.294Z,7.45
2022-09-10T06:35:20.092Z,7.18
2022-09-10T06:37:47.302Z,6.03
2022-09-10T06:40:15.506Z,7.05
2022-09-10T06:42:43.214Z,5.95
2022-09-10T06:45:12.840Z,7.00
2022-09-10T06:48:37.737Z,6.55
2022-09-10T06:50:53.047Z,5.93
2022-09-10T06:53:23.282Z,6.30
2022-09-10T06:55:54.650Z,5.13
2022-09-10T06:58:24.595Z,6.32
2022-09-10T07:00:51.928Z,5.50
2022-09-10T07:03:20.774Z,5.65
2022-09-10T07:05:49.211Z,5.47
2022-09-10T07:08:21.128Z,5.38
2022-09-10T07:11:00.681Z,5.85
2022-09-10T07:13:27.857Z,5.55
2022-09-10T07:15:56.844Z,5.85
2022-09-10T07:18:25.546Z,5.50
2022-09-10T07:20:52.651Z,5.28
2022-09-10T07:23:21.599Z,5.30
2022-09-10T07:25:50.810Z,5.07
2022-09-10T07:28:39.876Z,5.20
2022-09-10T07:31:13.153Z,5.55
2022-09-10T07:33:40.747Z,6.03
2022-09-10T07:36:08.497Z,4.97
2022-09-10T07:38:37.531Z,4.82
2022-09-10T07:41:05.611Z,5.43
2022-09-10T07:43:33.174Z,5.53
2022-09-10T07:46:04.098Z,5.18
2022-09-10T07:48:31.294Z,5.97
2022-09-10T07:51:04.878Z,5.47
2022-09-10T07:53:32.321Z,5.32
2022-09-10T07:56:05.570Z,6.28
2022-09-10T07:58:38.403Z,5.95
2022-09-10T08:01:12.337Z,5.07
2022-09-10T08:03:40.724Z,6.03
2022-09-10T08:06:10.254Z,6.03
2022-09-10T08:08:39.847Z,6.07
2022-09-10T08:11:14.142Z,6.28
2022-09-10T08:13:48.626Z,5.85
2022-09-10T08:16:21.350Z,6.72
2022-09-10T08:18:49.334Z,6.95
2022-09-10T08:21:18.486Z,5.65
2022-09-10T08:23:51.713Z,6.85
2022-09-10T08:26:20.016Z,6.10
2022-09-10T08:28:47.770Z,5.82
2022-09-10T08:31:16.656Z,5.85
2022-09-10T08:33:53.660Z,5.85
2022-09-10T08:36:23.234Z,6.38
2022-09-10T08:38:51.859Z,5.72
2022-09-10T08:41:29.652Z,6.30
2022-09-10T08:44:03.778Z,6.97
2022-09-10T08:46:40.810Z,5.93
2022-09-10T08:49:08.697Z,7.13
2022-09-10T08:51:44.733Z,7.00
2022-09-10T08:54:19.807Z,8.18
2022-09-10T08:56:49.018Z,7.43
2022-09-10T08:59:29.045Z,8.02
2022-09-10T09:02:00.929Z,9.27
2022-09-10T09:05:21.080Z,8.18
2022-09-10T09:07:53.545Z,8.30
2022-09-10T09:10:37.487Z,9.38
2022-09-10T09:13:30.858Z,7.68
2022-09-10T09:16:20.477Z,9.30
2022-09-10T09:18:57.317Z,8.30
2022-09-10T09:21:32.692Z,19.80
2022-09-10T09:24:13.308Z,8.77
2022-09-10T09:26:47.657Z,7.15
2022-09-10T09:29:24.682Z,7.85
2022-09-10T09:31:59.051Z,7.10
2022-09-10T09:34:43.294Z,7.88
2022-09-10T09:37:28.621Z,7.35
2022-09-10T09:40:21.108Z,7.17
2022-09-10T09:43:04.476Z,7.57
2022-09-10T09:45:45.321Z,7.90
2022-09-10T09:51:03.387Z,8.57
2022-09-10T09:53:30.991Z,8.50
2022-09-10T09:56:03.434Z,8.70
2022-09-10T09:58:33.540Z,8.55
2022-09-10T10:01:03.556Z,8.90
2022-09-10T10:03:35.581Z,11.20
2022-09-10T10:06:08.699Z,8.65
2022-09-10T10:08:44.091Z,8.35
2022-09-10T10:11:19.975Z,8.90
2022-09-10T10:13:51.460Z,8.45
2022-09-10T10:16:26.817Z,8.50
2022-09-10T10:18:53.587Z,8.02
2022-09-10T10:21:29.077Z,8.43
2022-09-10T10:23:56.039Z,7.03
2022-09-10T10:26:32.335Z,7.78
2022-09-10T10:29:16.300Z,5.72
2022-09-10T10:34:17.155Z,5.82
2022-09-10T10:37:03.557Z,7.35
2022-09-10T10:39:33.039Z,5.90
2022-09-10T10:42:14.362Z,5.63
2022-09-10T10:44:59.078Z,7.45
2022-09-10T10:47:32.775Z,5.95
2022-09-10T10:52:57.402Z,5.07
2022-09-10T10:55:50.316Z,5.47
2022-09-10T10:58:25.728Z,5.68
2022-09-10T11:00:59.306Z,5.30
2022-09-10T11:06:18.026Z,4.80
2022-09-10T11:08:51.038Z,5.93
2022-09-10T11:11:27.831Z,5.53
2022-09-10T11:14:15.754Z,4.93
2022-09-10T11:16:49.866Z,5.55
2022-09-10T11:19:31.239Z,5.10
2022-09-10T11:22:15.287Z,6.25
2022-09-10T11:27:33.330Z,5.60
2022-09-10T11:30:05.705Z,5.40
2022-09-10T11:32:49.837Z,5.05
2022-09-10T11:35:26.789Z,6.25
2022-09-10T11:38:04.258Z,4.60
2022-09-10T11:40:53.285Z,4.50
2022-09-10T11:43:27.129Z,4.80
2022-09-10T11:45:59.908Z,4.30
2022-09-10T11:48:49.467Z,4.27
2022-09-10T11:51:26.101Z,4.45
2022-09-10T11:53:54.812Z,6.38
2022-09-10T11:56:35.816Z,5.03
2022-09-10T11:59:42.457Z,5.72
2022-09-10T12:02:47.602Z,5.20
2022-09-10T12:05:39.221Z,4.75
2022-09-10T12:08:17.545Z,4.60
2022-09-10T12:11:04.544Z,4.70
2022-09-10T12:13:39.391Z,4.13
2022-09-10T12:16:42.851Z,4.38
2022-09-10T12:19:32.196Z,4.22
2022-09-10T12:22:08.536Z,4.07
2022-09-10T12:24:38.062Z,3.97
2022-09-10T12:27:07.992Z,4.13
2022-09-10T12:29:38.642Z,3.75
2022-09-10T12:32:09.930Z,3.17
2022-09-10T12:34:37.710Z,3.17
2022-09-10T12:37:04.670Z,3.10
2022-09-10T12:39:31.958Z,2.50
2022-09-10T12:42:23.252Z,2.90
2022-09-10T12:44:50.166Z,2.58
2022-09-10T12:47:16.867Z,1.98
2022-09-10T12:50:17.851Z,2.00
2022-09-10T12:52:53.730Z,2.28
2022-09-10T12:55:50.915Z,1.88
2022-09-10T12:58:23.300Z,1.90
2022-09-10T13:00:56.100Z,1.50
2022-09-10T13:03:26.664Z,1.73
2022-09-10T13:05:57.709Z,1.65
2022-09-10T13:08:43.793Z,1.60
2022-09-10T13:11:19.103Z,1.83
2022-09-10T13:13:54.900Z,1.73
2022-09-10T13:16:38.495Z,1.65
2022-09-10T13:19:14.415Z,2.03
2022-09-10T13:21:43.385Z,2.00
2022-09-10T13:24:35.787Z,1.67
2022-09-10T13:27:17.618Z,2.40
2022-09-10T13:30:14.569Z,2.80
2022-09-10T13:32:48.204Z,2.67
2022-09-10T13:38:11.583Z,2.70
2022-09-10T13:40:53.358Z,3.30
2022-09-10T13:43:38.125Z,3.05
2022-09-10T13:46:20.897Z,3.10
2022-09-10T13:48:59.967Z,2.55
2022-09-10T13:51:52.218Z,2.75
2022-09-10T13:54:35.228Z,2.67
2022-09-10T13:57:29.816Z,3.03
2022-09-10T14:00:23.718Z,2.65
2022-09-10T14:02:54.988Z,2.33
2022-09-10T14:05:28.699Z,2.00
2022-09-10T14:10:25.782Z,1.60
2022-09-10T14:12:54.908Z,2.35
2022-09-10T14:15:36.191Z,3.05
2022-09-10T14:18:03.469Z,2.70
2022-09-10T14:20:33.594Z,1.98
2022-09-10T14:23:29.540Z,1.23
2022-09-10T14:26:14.838Z,1.40
2022-09-10T14:29:17.814Z,1.77
2022-09-10T14:31:44.643Z,2.08
2022-09-10T14:34:33.043Z,1.85
2022-09-10T14:37:01.394Z,1.40
2022-09-10T14:39:28.609Z,1.30
2022-09-10T14:42:10.760Z,1.20
2022-09-10T14:44:42.183Z,1.10
2022-09-10T14:47:08.884Z,1.50
2022-09-10T14:49:38.497Z,1.52
2022-09-10T14:52:06.405Z,1.58
2022-09-10T14:54:34.878Z,1.10
2022-09-10T14:57:05.072Z,0.82
2022-09-10T14:59:35.081Z,1.38
2022-09-10T15:02:12.755Z,0.90
2022-09-10T15:04:39.574Z,1.42
2022-09-10T15:07:06.369Z,1.35
2022-09-10T15:09:33.111Z,1.50
2022-09-10T15:12:12.108Z,1.08
2022-09-10T15:14:39.049Z,1.20
2022-09-10T15:17:05.994Z,1.40
2022-09-10T15:19:32.870Z,1.08
2022-09-10T15:22:05.549Z,2.50
2022-09-10T15:24:47.261Z,0.90
2022-09-10T15:27:19.246Z,1.33
2022-09-10T15:29:45.980Z,1.00
2022-09-10T15:32:13.620Z,0.95
2022-09-10T15:34:41.060Z,1.48
2022-09-10T15:37:08.231Z,1.17
2022-09-10T15:39:38.671Z,1.13
2022-09-10T15:42:06.648Z,0.68
2022-09-10T15:44:33.667Z,1.08
2022-09-10T15:47:01.961Z,1.90
2022-09-10T15:49:29.663Z,1.10
2022-09-10T15:51:57.397Z,1.20
2022-09-10T15:54:24.184Z,1.05
2022-09-10T15:56:51.297Z,1.50
2022-09-10T15:59:18.108Z,1.20
2022-09-10T16:01:46.804Z,1.27
2022-09-10T16:04:15.463Z,1.27
2022-09-10T16:06:43.180Z,1.33
2022-09-10T16:09:12.322Z,1.33
2022-09-10T16:11:40.772Z,1.70
2022-09-10T16:14:11.782Z,2.40
2022-09-10T16:16:43.446Z,1.67
2022-09-10T16:19:14.883Z,1.52
2022-09-10T16:21:41.783Z,1.80
2022-09-10T16:24:09.911Z,1.27
2022-09-10T16:26:40.235Z,1.33
2022-09-10T16:29:17.950Z,2.20
2022-09-10T16:31:49.400Z,1.27
2022-09-10T16:34:18.674Z,1.10
2022-09-10T16:36:48.879Z,1.30
2022-09-10T16:39:16.756Z,1.15
2022-09-10T16:41:45.562Z,1.10
2022-09-10T16:44:18.105Z,1.20
2022-09-10T16:46:46.514Z,1.25
2022-09-10T16:49:14.666Z,1.10
2022-09-10T16:51:42.973Z,0.95
2022-09-10T16:54:13.993Z,0.95
2022-09-10T16:56:43.499Z,1.00
2022-09-10T16:59:14.905Z,1.17
2022-09-10T17:01:44.308Z,1.02
2022-09-10T17:04:22.351Z,0.80
2022-09-10T17:06:51.580Z,0.88
2022-09-10T17:09:18.406Z,1.42
2022-09-10T17:11:45.786Z,0.75
2022-09-10T17:14:13.609Z,1.25
2022-09-10T17:16:41.804Z,0.90
2022-09-10T17:19:26.361Z,1.30
2022-09-10T17:21:55.549Z,1.20
2022-09-10T17:24:26.848Z,1.40
2022-09-10T17:26:55.190Z,1.50
2022-09-10T17:29:24.583Z,1.23
2022-09-10T17:31:52.091Z,1.17
2022-09-10T17:34:21.319Z,1.33
2022-09-10T17:36:49.294Z,1.30
2022-09-10T17:39:20.373Z,2.33
2022-09-10T17:41:50.462Z,1.20
2022-09-10T17:44:18.283Z,1.38
2022-09-10T17:46:46.024Z,1.50
2022-09-10T17:49:14.283Z,1.13
2022-09-10T17:51:42.141Z,1.45
2022-09-10T17:54:09.342Z,2.08
2022-09-10T17:56:38.010Z,1.38
2022-09-10T17:59:05.695Z,1.55
2022-09-10T18:01:36.178Z,1.42
2022-09-10T18:04:04.421Z,1.48
2022-09-10T18:06:32.303Z,1.60
2022-09-10T18:09:00.571Z,1.48
2022-09-10T18:11:31.274Z,1.05
2022-09-10T18:14:00.289Z,1.73
2022-09-10T18:16:30.215Z,2.28
2022-09-10T18:19:09.153Z,1.30
2022-09-10T18:21:40.666Z,2.00
2022-09-10T18:24:17.257Z,1.80
2022-09-10T18:26:50.006Z,1.65
2022-09-10T18:29:29.762Z,1.80
2022-09-10T18:31:58.844Z,1.60
2022-09-10T18:34:27.966Z,2.10
2022-09-10T18:37:03.838Z,1.73
2022-09-10T18:39:32.441Z,1.75
2022-09-10T18:42:01.025Z,1.75
2022-09-10T18:44:33.199Z,2.00
2022-09-10T18:47:00.524Z,1.85
2022-09-10T18:49:27.369Z,2.17
2022-09-10T18:51:56.075Z,1.58
2022-09-10T18:54:23.596Z,2.35
2022-09-10T18:56:53.902Z,2.42
2022-09-10T18:59:23.092Z,2.15
2022-09-10T19:01:53.056Z,2.00
2022-09-10T19:04:23.579Z,2.15
2022-09-10T19:06:52.167Z,1.70
2022-09-10T19:09:25.032Z,1.52
2022-09-10T19:11:53.737Z,2.10
2022-09-10T19:14:22.764Z,2.20
2022-09-10T19:16:51.458Z,2.08
2022-09-10T19:19:20.689Z,2.33
2022-09-10T19:21:59.510Z,1.73
2022-09-10T19:27:22.357Z,2.22
2022-09-10T19:29:50.488Z,2.83
2022-09-10T19:32:20.049Z,2.13
2022-09-10T19:34:51.586Z,2.63
2022-09-10T19:37:20.043Z,2.25
2022-09-10T19:39:47.612Z,2.50
2022-09-10T19:42:15.241Z,2.83
2022-09-10T19:44:43.684Z,2.88
2022-09-10T19:47:10.910Z,2.88
2022-09-10T19:49:38.989Z,3.60
2022-09-10T19:52:06.227Z,2.05
2022-09-10T19:54:34.154Z,2.88
2022-09-10T19:57:04.231Z,2.75
2022-09-10T19:59:32.115Z,3.17
2022-09-10T20:02:03.294Z,2.72
2022-09-10T20:04:31.222Z,2.40
2022-09-10T20:06:57.973Z,3.25
2022-09-10T20:09:25.099Z,2.65
2022-09-10T20:11:52.498Z,2.55
2022-09-10T20:14:20.104Z,3.00
2022-09-10T20:16:56.580Z,3.22
2022-09-10T20:19:31.389Z,2.50
2022-09-10T20:21:58.165Z,2.38
2022-09-10T20:24:28.430Z,2.90
2022-09-10T20:26:55.565Z,2.78
2022-09-10T20:29:23.119Z,3.30
2022-09-10T20:31:49.867Z,2.88
2022-09-10T20:34:20.625Z,2.78
2022-09-10T20:36:51.331Z,3.80
2022-09-10T20:39:21.378Z,3.55
2022-09-10T20:41:49.290Z,3.90
2022-09-10T20:44:17.052Z,3.83
2022-09-10T20:46:44.832Z,4.45
2022-09-10T20:49:13.717Z,3.40
2022-09-10T20:51:41.398Z,3.25
2022-09-10T20:54:15.331Z,3.92
2022-09-10T20:56:42.670Z,3.78
2022-09-10T20:59:17.922Z,4.10
2022-09-10T21:01:46.921Z,4.07
2022-09-10T21:04:14.422Z,4.72
2022-09-10T21:06:41.278Z,5.30
2022-09-10T21:09:09.029Z,4.57
2022-09-10T21:11:38.034Z,4.93
2022-09-10T21:14:07.145Z,4.05
2022-09-10T21:16:45.559Z,4.60
2022-09-10T21:19:15.766Z,4.72
2022-09-10T21:21:44.882Z,4.25
2022-09-10T21:24:19.562Z,4.78
2022-09-10T21:26:46.530Z,4.82
2022-09-10T21:29:15.858Z,4.43
2022-09-10T21:31:43.223Z,4.43
2022-09-10T21:34:10.313Z,5.65
2022-09-10T21:36:38.582Z,4.35
2022-09-10T21:39:11.173Z,4.50
2022-09-10T21:41:40.276Z,5.03
2022-09-10T21:44:25.051Z,5.03
2022-09-10T21:46:52.884Z,5.35
2022-09-10T21:49:24.708Z,5.22
2022-09-10T21:51:54.872Z,5.22
2022-09-10T21:54:22.990Z,5.78
2022-09-10T21:56:50.815Z,5.47
2022-09-10T21:59:18.449Z,5.45
2022-09-10T22:01:46.441Z,6.00
2022-09-10T22:04:18.852Z,5.35
2022-09-10T22:06:48.731Z,5.65
2022-09-10T22:09:17.520Z,5.45
2022-09-10T22:11:49.963Z,6.18
2022-09-10T22:14:21.920Z,6.43
2022-09-10T22:16:49.342Z,6.47
2022-09-10T22:19:19.799Z,6.63
2022-09-10T22:21:47.050Z,7.28
2022-09-10T22:24:18.254Z,6.65
2022-09-10T22:26:46.413Z,7.10
2022-09-10T22:29:16.301Z,6.40
2022-09-10T22:31:54.220Z,6.38
2022-09-10T22:34:21.048Z,7.07
2022-09-10T22:36:49.359Z,6.60
2022-09-10T22:39:18.366Z,7.43
2022-09-10T22:41:46.374Z,6.63
2022-09-10T22:44:14.943Z,5.97
2022-09-10T22:46:42.630Z,6.43
2022-09-10T22:49:10.104Z,6.15
2022-09-10T22:51:40.761Z,7.32
2022-09-10T22:54:08.838Z,7.13
2022-09-10T22:56:36.296Z,7.85
2022-09-10T22:59:04.642Z,7.07
2022-09-10T23:01:36.581Z,6.68
2022-09-10T23:04:05.397Z,6.82
2022-09-10T23:06:34.595Z,6.68
2022-09-10T23:09:14.160Z,7.18
2022-09-10T23:11:41.862Z,6.53
2022-09-10T23:14:12.913Z,6.95
2022-09-10T23:16:41.979Z,7.05
2022-09-10T23:19:15.158Z,7.28
2022-09-10T23:21:45.525Z,6.75
2022-09-10T23:24:14.542Z,7.15
2022-09-10T23:26:42.277Z,6.40
2022-09-10T23:29:09.898Z,6.40
2022-09-10T23:31:38.457Z,6.30
2022-09-10T23:34:08.269Z,6.38
2022-09-10T23:36:37.966Z,6.40
2022-09-10T23:39:07.521Z,6.70
2022-09-10T23:41:34.695Z,7.93
2022-09-10T23:44:01.721Z,7.40
2022-09-10T23:46:28.541Z,6.78
2022-09-10T23:48:56.374Z,6.93
2022-09-10T23:51:24.400Z,7.25
2022-09-10T23:53:51.342Z,7.75
2022-09-10T23:56:20.034Z,7.43
2022-09-10T23:58:47.633Z,8.52
